createdAt,value
2023-04-10T00:00:39.436Z,6.40
2023-04-10T00:01:41.316Z,6.40
2023-04-10T00:02:44.921Z,6.40
2023-04-10T00:03:47.991Z,6.40
2023-04-10T00:04:49.684Z,6.50
2023-04-10T00:05:51.300Z,6.50
2023-04-10T00:06:53.185Z,6.40
2023-04-10T00:07:54.647Z,6.40
2023-04-10T00:08:56.209Z,6.40
2023-04-10T00:09:57.639Z,6.30
2023-04-10T00:10:59.366Z,6.30
2023-04-10T00:12:00.827Z,6.40
2023-04-10T00:13:04.680Z,6.30
2023-04-10T00:14:06.241Z,6.30
2023-04-10T00:15:08.479Z,6.30
2023-04-10T00:16:10.943Z,6.30
2023-04-10T00:17:13.105Z,6.20
2023-04-10T00:18:14.777Z,6.30
2023-04-10T00:19:16.692Z,6.20
2023-04-10T00:20:18.183Z,6.20
2023-04-10T00:21:19.571Z,6.10
2023-04-10T00:22:20.983Z,6.10
2023-04-10T00:23:22.408Z,6.00
2023-04-10T00:24:24.138Z,5.90
2023-04-10T00:25:26.710Z,6.00
2023-04-10T00:26:28.388Z,6.00
2023-04-10T00:27:29.966Z,6.00
2023-04-10T00:28:31.669Z,6.00
2023-04-10T00:29:33.154Z,5.90
2023-04-10T00:30:34.711Z,5.90
2023-04-10T00:31:36.228Z,5.80
2023-04-10T00:32:38.219Z,5.70
2023-04-10T00:33:39.711Z,5.80
2023-04-10T00:34:41.152Z,5.80
2023-04-10T00:35:42.974Z,5.80
2023-04-10T00:36:47.098Z,5.70
2023-04-10T00:37:50.288Z,5.70
2023-04-10T00:38:51.883Z,5.70
2023-04-10T00:39:53.725Z,5.70
2023-04-10T00:40:55.305Z,5.70
2023-04-10T00:41:57.639Z,5.60
2023-04-10T00:42:59.192Z,5.70
2023-04-10T00:44:00.757Z,5.70
2023-04-10T00:45:02.322Z,5.60
2023-04-10T00:46:05.539Z,5.70
2023-04-10T00:47:08.115Z,5.60
2023-04-10T00:48:09.706Z,5.60
2023-04-10T00:49:11.788Z,5.60
2023-04-10T00:50:13.602Z,5.60
2023-04-10T00:51:15.447Z,5.70
2023-04-10T00:52:17.635Z,5.60
2023-04-10T00:53:19.117Z,5.60
2023-04-10T00:54:20.953Z,5.50
2023-04-10T00:55:22.424Z,5.60
2023-04-10T00:56:24.868Z,5.50
2023-04-10T00:57:27.108Z,5.50
2023-04-10T00:58:28.712Z,5.40
2023-04-10T00:59:31.478Z,5.40
2023-04-10T01:00:32.914Z,5.40
2023-04-10T01:01:34.469Z,5.40
2023-04-10T01:02:36.485Z,5.40
2023-04-10T01:03:39.829Z,5.30
2023-04-10T01:04:43.116Z,5.30
2023-04-10T01:06:08.526Z,5.30
2023-04-10T01:07:21.539Z,5.20
2023-04-10T01:08:31.762Z,5.20
2023-04-10T01:09:37.414Z,5.20
2023-04-10T01:10:52.631Z,5.20
2023-04-10T01:12:00.288Z,5.20
2023-04-10T01:13:31.508Z,5.10
2023-04-10T01:14:54.436Z,5.10
2023-04-10T01:16:07.438Z,5.00
2023-04-10T01:17:16.400Z,4.90
2023-04-10T01:18:36.560Z,4.90
2023-04-10T01:20:08.242Z,5.00
2023-04-10T01:21:12.058Z,4.90
2023-04-10T01:22:15.363Z,4.90
2023-04-10T01:23:45.586Z,4.90
2023-04-10T01:25:19.796Z,4.90
2023-04-10T01:26:46.014Z,4.90
2023-04-10T01:28:24.605Z,4.90
2023-04-10T01:29:30.500Z,4.90
2023-04-10T01:30:36.998Z,4.90
2023-04-10T01:31:50.405Z,4.90
2023-04-10T01:32:56.061Z,4.90
2023-04-10T01:34:07.310Z,4.80
2023-04-10T01:35:10.887Z,4.80
2023-04-10T01:36:16.275Z,4.90
2023-04-10T01:37:26.146Z,4.90
2023-04-10T01:38:30.518Z,4.90
2023-04-10T01:39:37.062Z,4.90
2023-04-10T01:40:42.231Z,4.90
2023-04-10T01:41:46.436Z,4.90
2023-04-10T01:42:53.254Z,4.90
2023-04-10T01:43:59.056Z,4.90
2023-04-10T01:45:03.996Z,4.90
2023-04-10T01:46:06.007Z,4.90
2023-04-10T01:47:08.365Z,4.80
2023-04-10T01:48:10.796Z,4.90
2023-04-10T01:49:13.917Z,4.80
2023-04-10T01:50:16.245Z,4.70
2023-04-10T01:51:18.265Z,4.70
2023-04-10T01:52:21.546Z,4.80
2023-04-10T01:53:28.860Z,4.80
2023-04-10T01:54:33.634Z,4.80
2023-04-10T01:55:38.230Z,4.80
2023-04-10T01:56:41.968Z,4.80
2023-04-10T01:57:46.790Z,4.70
2023-04-10T01:58:48.571Z,4.70
2023-04-10T01:59:50.801Z,4.70
2023-04-10T02:00:52.221Z,4.70
2023-04-10T02:02:01.467Z,4.70
2023-04-10T02:03:03.079Z,4.70
2023-04-10T02:04:04.789Z,4.70
2023-04-10T02:05:07.001Z,4.70
2023-04-10T02:06:22.249Z,4.70
2023-04-10T02:07:35.625Z,4.70
2023-04-10T02:08:48.116Z,4.80
2023-04-10T02:10:02.368Z,4.80
2023-04-10T02:11:44.377Z,4.70
2023-04-10T02:12:53.612Z,4.70
2023-04-10T02:14:02.243Z,4.70
2023-04-10T02:15:06.510Z,4.60
2023-04-10T02:16:11.532Z,4.60
2023-04-10T02:17:20.592Z,4.60
2023-04-10T02:18:27.162Z,4.60
2023-04-10T02:19:31.206Z,4.60
2023-04-10T02:20:33.345Z,4.60
2023-04-10T02:21:36.198Z,4.60
2023-04-10T02:22:37.781Z,4.60
2023-04-10T02:23:40.327Z,4.60
2023-04-10T02:24:42.115Z,4.60
2023-04-10T02:25:46.350Z,4.60
2023-04-10T02:26:52.826Z,4.70
2023-04-10T02:27:54.385Z,4.70
2023-04-10T02:28:55.938Z,4.70
2023-04-10T02:29:57.638Z,4.80
2023-04-10T02:30:59.168Z,4.80
2023-04-10T02:32:01.476Z,4.80
2023-04-10T02:33:03.638Z,4.90
2023-04-10T02:34:06.024Z,4.80
2023-04-10T02:35:08.072Z,4.80
2023-04-10T02:36:12.783Z,4.70
2023-04-10T02:37:14.356Z,4.70
2023-04-10T02:38:17.421Z,4.60
2023-04-10T02:39:19.398Z,4.60
2023-04-10T02:40:24.324Z,4.60
2023-04-10T02:41:37.374Z,4.60
2023-04-10T02:42:39.453Z,4.60
2023-04-10T02:43:41.693Z,4.60
2023-04-10T02:44:43.252Z,4.70
2023-04-10T02:45:45.442Z,4.60
2023-04-10T02:46:51.666Z,4.60
2023-04-10T02:47:53.580Z,4.70
2023-04-10T02:48:56.148Z,4.80
2023-04-10T02:49:57.851Z,4.70
2023-04-10T02:51:02.957Z,4.70
2023-04-10T02:52:04.599Z,4.70
2023-04-10T02:53:06.030Z,4.70
2023-04-10T02:54:07.437Z,4.70
2023-04-10T02:55:10.525Z,4.70
2023-04-10T02:56:13.975Z,4.70
2023-04-10T02:57:16.399Z,4.70
2023-04-10T02:58:17.816Z,4.70
2023-04-10T02:59:19.423Z,4.70
2023-04-10T03:00:20.853Z,4.70
2023-04-10T03:01:57.760Z,4.70
2023-04-10T03:02:59.631Z,4.70
2023-04-10T03:04:06.300Z,4.70
2023-04-10T03:05:13.277Z,4.60
2023-04-10T03:06:15.861Z,4.60
2023-04-10T03:07:20.444Z,4.70
2023-04-10T03:08:23.846Z,4.70
2023-04-10T03:09:25.271Z,4.80
2023-04-10T03:10:29.166Z,4.80
2023-04-10T03:11:30.695Z,4.80
2023-04-10T03:12:32.269Z,4.80
2023-04-10T03:13:33.624Z,4.80
2023-04-10T03:14:35.635Z,4.80
2023-04-10T03:15:37.927Z,4.80
2023-04-10T03:16:39.632Z,4.80
2023-04-10T03:17:41.876Z,4.80
2023-04-10T03:18:43.575Z,4.80
2023-04-10T03:19:45.911Z,4.80
2023-04-10T03:20:49.005Z,4.90
2023-04-10T03:21:50.720Z,4.90
2023-04-10T03:22:53.137Z,4.90
2023-04-10T03:23:54.967Z,4.90
2023-04-10T03:24:56.890Z,4.90
2023-04-10T03:25:58.734Z,4.90
2023-04-10T03:27:03.798Z,4.90
2023-04-10T03:28:05.702Z,4.80
2023-04-10T03:29:07.476Z,4.80
2023-04-10T03:30:09.687Z,4.90
2023-04-10T03:31:15.446Z,4.80
2023-04-10T03:32:18.898Z,4.80
2023-04-10T03:33:20.696Z,4.80
2023-04-10T03:34:22.421Z,4.80
2023-04-10T03:35:24.067Z,4.80
2023-04-10T03:36:25.643Z,4.70
2023-04-10T03:37:28.572Z,4.70
2023-04-10T03:38:30.238Z,4.70
2023-04-10T03:39:33.620Z,4.70
2023-04-10T03:40:35.828Z,4.60
2023-04-10T03:41:37.903Z,4.70
2023-04-10T03:42:39.383Z,4.70
2023-04-10T03:43:40.847Z,4.70
2023-04-10T03:44:42.919Z,4.70
2023-04-10T03:45:44.629Z,4.70
2023-04-10T03:46:47.534Z,4.70
2023-04-10T03:47:49.194Z,4.80
2023-04-10T03:48:52.784Z,4.80
2023-04-10T03:49:55.515Z,4.80
2023-04-10T03:50:57.396Z,4.80
2023-04-10T03:51:58.970Z,4.80
2023-04-10T03:53:01.365Z,4.80
2023-04-10T03:54:02.759Z,4.70
2023-04-10T03:55:04.696Z,4.70
2023-04-10T03:56:06.595Z,4.70
2023-04-10T03:57:09.206Z,4.70
2023-04-10T03:58:10.631Z,4.70
2023-04-10T03:59:12.218Z,4.70
2023-04-10T04:00:16.925Z,4.60
2023-04-10T04:01:24.330Z,4.70
2023-04-10T04:02:33.606Z,4.70
2023-04-10T04:03:35.975Z,4.60
2023-04-10T04:05:00.439Z,4.60
2023-04-10T04:06:20.209Z,4.60
2023-04-10T04:07:39.371Z,4.60
2023-04-10T04:09:06.589Z,4.70
2023-04-10T04:10:34.575Z,4.60
2023-04-10T04:11:49.577Z,4.60
2023-04-10T04:13:10.987Z,4.60
2023-04-10T04:14:33.259Z,4.60
2023-04-10T04:15:53.460Z,4.50
2023-04-10T04:17:11.849Z,4.50
2023-04-10T04:18:31.896Z,4.50
2023-04-10T04:19:52.409Z,4.50
2023-04-10T04:21:00.702Z,4.50
2023-04-10T04:22:16.037Z,4.50
2023-04-10T04:23:35.974Z,4.60
2023-04-10T04:24:40.457Z,4.60
2023-04-10T04:25:52.825Z,4.60
2023-04-10T04:26:57.589Z,4.60
2023-04-10T04:28:25.158Z,4.50
2023-04-10T04:29:52.513Z,4.50
2023-04-10T04:31:01.084Z,4.50
2023-04-10T04:32:22.580Z,4.50
2023-04-10T04:33:30.338Z,4.40
2023-04-10T04:34:38.166Z,4.40
2023-04-10T04:35:58.270Z,4.40
2023-04-10T04:37:22.746Z,4.40
2023-04-10T04:38:39.222Z,4.30
2023-04-10T04:40:00.238Z,4.30
2023-04-10T04:41:32.624Z,4.30
2023-04-10T04:42:57.445Z,4.30
2023-04-10T04:44:11.705Z,4.30
2023-04-10T04:45:29.594Z,4.30
2023-04-10T04:46:44.596Z,4.30
2023-04-10T04:47:46.822Z,4.30
2023-04-10T04:49:06.941Z,4.30
2023-04-10T04:50:21.325Z,4.30
2023-04-10T04:51:41.482Z,4.30
2023-04-10T04:52:49.156Z,4.30
2023-04-10T04:54:09.208Z,4.30
2023-04-10T04:55:43.234Z,4.30
2023-04-10T04:57:04.980Z,4.30
2023-04-10T04:58:24.865Z,4.30
2023-04-10T04:59:44.486Z,4.30
2023-04-10T05:00:55.159Z,4.20
2023-04-10T05:02:23.230Z,4.20
2023-04-10T05:04:00.106Z,4.20
2023-04-10T05:05:29.852Z,4.20
2023-04-10T05:06:44.824Z,4.10
2023-04-10T05:08:12.251Z,4.20
2023-04-10T05:09:34.287Z,4.20
2023-04-10T05:10:43.139Z,4.10
2023-04-10T05:11:51.333Z,4.20
2023-04-10T05:13:11.598Z,4.20
2023-04-10T05:14:22.472Z,4.20
2023-04-10T05:15:54.747Z,4.20
2023-04-10T05:17:19.277Z,4.20
2023-04-10T05:18:31.117Z,4.20
2023-04-10T05:19:38.657Z,4.30
2023-04-10T05:20:52.078Z,4.30
2023-04-10T05:22:13.758Z,4.30
2023-04-10T05:23:27.536Z,4.20
2023-04-10T05:24:48.989Z,4.30
2023-04-10T05:25:58.057Z,4.30
2023-04-10T05:27:20.820Z,4.30
2023-04-10T05:28:34.063Z,4.20
2023-04-10T05:30:08.538Z,4.30
2023-04-10T05:31:28.864Z,4.30
2023-04-10T05:32:56.275Z,4.30
2023-04-10T05:34:18.219Z,4.40
2023-04-10T05:35:38.308Z,4.50
2023-04-10T05:36:59.235Z,4.40
2023-04-10T05:38:17.688Z,4.40
2023-04-10T05:39:42.080Z,4.40
2023-04-10T05:41:03.614Z,4.50
2023-04-10T05:42:14.019Z,4.50
2023-04-10T05:43:30.090Z,4.50
2023-04-10T05:44:46.665Z,4.50
2023-04-10T05:46:02.289Z,4.50
2023-04-10T05:47:22.196Z,4.50
2023-04-10T05:48:31.174Z,4.60
2023-04-10T05:49:50.852Z,4.50
2023-04-10T05:50:52.838Z,4.50
2023-04-10T05:52:09.069Z,4.50
2023-04-10T05:53:32.440Z,4.60
2023-04-10T05:54:39.702Z,4.50
2023-04-10T05:56:05.956Z,4.60
2023-04-10T05:57:42.615Z,4.60
2023-04-10T05:59:09.963Z,4.60
2023-04-10T06:00:31.651Z,4.60
2023-04-10T06:01:57.686Z,4.60
2023-04-10T06:02:59.461Z,4.60
2023-04-10T06:04:03.183Z,4.60
2023-04-10T06:05:05.435Z,4.70
2023-04-10T06:06:08.485Z,4.70
2023-04-10T06:07:10.406Z,4.70
2023-04-10T06:08:12.057Z,4.70
2023-04-10T06:09:14.228Z,4.80
2023-04-10T06:10:15.950Z,4.70
2023-04-10T06:11:18.018Z,4.70
2023-04-10T06:12:24.702Z,4.80
2023-04-10T06:13:27.536Z,4.80
2023-04-10T06:14:32.681Z,4.80
2023-04-10T06:15:34.432Z,4.90
2023-04-10T06:16:37.015Z,5.00
2023-04-10T06:17:43.822Z,5.00
2023-04-10T06:18:46.538Z,5.10
2023-04-10T06:19:48.013Z,5.10
2023-04-10T06:20:49.415Z,5.10
2023-04-10T06:21:53.158Z,5.20
2023-04-10T06:22:56.219Z,5.20
2023-04-10T06:23:57.739Z,5.40
2023-04-10T06:24:59.223Z,5.50
2023-04-10T06:26:01.307Z,5.50
2023-04-10T06:27:03.107Z,5.50
2023-04-10T06:28:04.705Z,5.50
2023-04-10T06:29:06.156Z,5.50
2023-04-10T06:30:09.389Z,5.50
2023-04-10T06:31:12.684Z,5.50
2023-04-10T06:32:14.099Z,5.50
2023-04-10T06:33:16.285Z,5.60
2023-04-10T06:34:19.241Z,5.70
2023-04-10T06:35:37.819Z,5.70
2023-04-10T06:36:39.397Z,5.80
2023-04-10T06:37:42.207Z,5.80
2023-04-10T06:38:43.750Z,5.90
2023-04-10T06:39:45.789Z,5.90
2023-04-10T06:40:47.301Z,5.90
2023-04-10T06:41:48.728Z,6.00
2023-04-10T06:43:03.240Z,6.00
2023-04-10T06:44:11.976Z,6.10
2023-04-10T06:45:13.566Z,6.10
2023-04-10T06:46:16.173Z,6.20
2023-04-10T06:47:18.288Z,6.20
2023-04-10T06:48:20.363Z,6.30
2023-04-10T06:49:21.936Z,6.30
2023-04-10T06:50:23.575Z,6.40
2023-04-10T06:51:25.198Z,6.40
2023-04-10T06:52:26.889Z,6.50
2023-04-10T06:53:29.104Z,6.50
2023-04-10T06:54:30.569Z,6.60
2023-04-10T06:55:31.908Z,6.60
2023-04-10T06:56:33.284Z,6.70
2023-04-10T06:57:34.606Z,6.70
2023-04-10T06:58:36.288Z,6.80
2023-04-10T06:59:37.684Z,6.90
2023-04-10T07:00:39.055Z,6.90
2023-04-10T07:01:40.743Z,7.00
2023-04-10T07:02:42.190Z,7.10
2023-04-10T07:03:43.602Z,7.20
2023-04-10T07:04:45.582Z,7.30
2023-04-10T07:05:46.982Z,7.30
2023-04-10T07:06:48.738Z,7.30
2023-04-10T07:07:51.230Z,7.40
2023-04-10T07:08:52.944Z,7.40
2023-04-10T07:09:54.540Z,7.40
2023-04-10T07:10:58.310Z,7.50
2023-04-10T07:12:00.589Z,7.60
2023-04-10T07:13:02.204Z,7.60
2023-04-10T07:14:03.835Z,7.70
2023-04-10T07:15:06.198Z,7.70
2023-04-10T07:16:08.985Z,7.80
2023-04-10T07:17:10.402Z,7.80
2023-04-10T07:18:11.986Z,7.90
2023-04-10T07:19:14.088Z,8.00
2023-04-10T07:20:15.474Z,8.00
2023-04-10T07:21:17.686Z,8.00
2023-04-10T07:22:19.060Z,8.10
2023-04-10T07:23:20.753Z,8.10
2023-04-10T07:24:22.161Z,8.10
2023-04-10T07:25:24.089Z,8.20
2023-04-10T07:26:25.944Z,8.20
2023-04-10T07:27:28.259Z,8.20
2023-04-10T07:28:29.638Z,8.30
2023-04-10T07:29:31.487Z,8.40
2023-04-10T07:30:33.164Z,8.50
2023-04-10T07:31:34.689Z,8.60
2023-04-10T07:32:37.471Z,8.60
2023-04-10T07:33:39.316Z,8.70
2023-04-10T07:34:42.185Z,8.70
2023-04-10T07:35:43.600Z,8.80
2023-04-10T07:36:46.093Z,8.80
2023-04-10T07:37:52.279Z,8.90
2023-04-10T07:38:53.911Z,9.00
2023-04-10T07:39:55.559Z,9.00
2023-04-10T07:40:57.806Z,9.00
2023-04-10T07:42:00.161Z,9.10
2023-04-10T07:43:01.630Z,9.10
2023-04-10T07:44:02.991Z,9.20
2023-04-10T07:45:04.979Z,9.30
2023-04-10T07:46:06.831Z,9.30
2023-04-10T07:47:08.773Z,9.30
2023-04-10T07:48:10.380Z,9.40
2023-04-10T07:49:12.346Z,9.40
2023-04-10T07:50:13.833Z,9.50
2023-04-10T07:51:15.586Z,9.50
2023-04-10T07:52:16.980Z,9.60
2023-04-10T07:53:18.384Z,9.60
2023-04-10T07:54:19.780Z,9.60
2023-04-10T07:55:21.221Z,9.60
2023-04-10T07:56:23.158Z,9.70
2023-04-10T07:57:24.643Z,9.80
2023-04-10T07:58:26.008Z,9.90
2023-04-10T07:59:29.327Z,10.00
2023-04-10T08:00:31.244Z,10.00
2023-04-10T08:01:33.589Z,10.00
2023-04-10T08:02:35.410Z,10.00
2023-04-10T08:03:41.531Z,10.10
2023-04-10T08:04:43.809Z,10.10
2023-04-10T08:05:45.691Z,10.10
2023-04-10T08:06:47.054Z,10.20
2023-04-10T08:07:48.478Z,10.30
2023-04-10T08:08:50.844Z,10.30
2023-04-10T08:09:52.853Z,10.40
2023-04-10T08:10:54.759Z,10.40
2023-04-10T08:11:57.558Z,10.40
2023-04-10T08:12:59.193Z,10.40
2023-04-10T08:14:02.448Z,10.30
2023-04-10T08:15:04.150Z,10.30
2023-04-10T08:16:06.296Z,10.30
2023-04-10T08:17:14.408Z,10.40
2023-04-10T08:18:15.936Z,10.50
2023-04-10T08:19:17.286Z,10.60
2023-04-10T08:20:18.699Z,10.60
2023-04-10T08:21:22.064Z,10.60
2023-04-10T08:22:23.449Z,10.70
2023-04-10T08:23:24.857Z,10.70
2023-04-10T08:24:26.524Z,10.80
2023-04-10T08:25:28.135Z,10.80
2023-04-10T08:26:30.171Z,10.80
2023-04-10T08:27:31.708Z,10.80
2023-04-10T08:28:33.290Z,10.80
2023-04-10T08:29:34.852Z,10.90
2023-04-10T08:30:36.441Z,11.00
2023-04-10T08:31:38.553Z,11.10
2023-04-10T08:32:39.952Z,11.00
2023-04-10T08:33:41.622Z,11.10
2023-04-10T08:34:43.072Z,11.20
2023-04-10T08:35:49.125Z,11.20
2023-04-10T08:36:50.556Z,11.20
2023-04-10T08:38:07.830Z,11.20
2023-04-10T08:39:13.322Z,11.20
2023-04-10T08:40:15.716Z,11.10
2023-04-10T08:41:19.197Z,11.10
2023-04-10T08:42:22.250Z,11.20
2023-04-10T08:43:24.108Z,11.30
2023-04-10T08:44:25.482Z,11.30
2023-04-10T08:45:26.925Z,11.30
2023-04-10T08:46:30.862Z,11.30
2023-04-10T08:47:38.373Z,11.40
2023-04-10T08:48:58.821Z,11.40
2023-04-10T08:50:06.101Z,11.50
2023-04-10T08:51:19.497Z,11.60
2023-04-10T08:52:24.484Z,11.70
2023-04-10T08:53:30.939Z,11.70
2023-04-10T08:54:38.702Z,11.70
2023-04-10T08:55:41.561Z,11.70
2023-04-10T08:56:47.080Z,11.70
2023-04-10T08:57:58.033Z,11.80
2023-04-10T08:59:03.853Z,11.80
2023-04-10T09:00:19.986Z,11.80
2023-04-10T09:01:25.688Z,11.90
2023-04-10T09:02:28.791Z,12.00
2023-04-10T09:03:31.223Z,12.10
2023-04-10T09:04:33.642Z,12.10
2023-04-10T09:05:36.663Z,12.20
2023-04-10T09:06:38.293Z,12.30
2023-04-10T09:07:40.087Z,12.40
2023-04-10T09:08:42.104Z,12.40
2023-04-10T09:09:44.637Z,12.40
2023-04-10T09:10:46.282Z,12.50
2023-04-10T09:11:56.382Z,12.60
2023-04-10T09:12:57.813Z,12.60
2023-04-10T09:13:59.256Z,12.60
2023-04-10T09:15:00.948Z,12.60
2023-04-10T09:16:03.806Z,12.40
2023-04-10T09:17:11.412Z,12.40
2023-04-10T09:18:12.798Z,12.40
2023-04-10T09:19:28.945Z,12.50
2023-04-10T09:20:31.940Z,12.50
2023-04-10T09:21:33.635Z,12.50
2023-04-10T09:22:36.358Z,12.40
2023-04-10T09:23:37.902Z,12.40
2023-04-10T09:24:42.428Z,12.50
2023-04-10T09:25:44.141Z,12.60
2023-04-10T09:26:45.731Z,12.70
2023-04-10T09:27:47.335Z,12.70
2023-04-10T09:29:03.274Z,12.80
2023-04-10T09:30:06.570Z,12.70
2023-04-10T09:31:29.707Z,12.60
2023-04-10T09:32:38.960Z,12.50
2023-04-10T09:33:40.608Z,12.40
2023-04-10T09:34:58.477Z,12.50
2023-04-10T09:36:00.940Z,12.70
2023-04-10T09:37:02.631Z,12.90
2023-04-10T09:38:18.353Z,13.00
2023-04-10T09:39:20.696Z,13.10
2023-04-10T09:40:25.813Z,13.20
2023-04-10T09:41:28.394Z,13.30
2023-04-10T09:42:34.003Z,13.20
2023-04-10T09:43:35.949Z,13.20
2023-04-10T09:44:39.796Z,13.20
2023-04-10T09:45:55.106Z,13.30
2023-04-10T09:46:57.258Z,13.40
2023-04-10T09:48:07.451Z,13.50
2023-04-10T09:49:09.420Z,13.50
2023-04-10T09:50:10.936Z,13.40
2023-04-10T09:51:30.263Z,13.40
2023-04-10T09:52:35.275Z,13.50
2023-04-10T09:53:50.362Z,13.40
2023-04-10T09:54:53.287Z,13.40
2023-04-10T09:55:56.192Z,13.40
2023-04-10T09:56:58.112Z,13.50
2023-04-10T09:58:05.572Z,13.50
2023-04-10T09:59:08.271Z,13.60
2023-04-10T10:00:11.287Z,13.60
2023-04-10T10:01:13.038Z,13.60
2023-04-10T10:02:16.384Z,13.60
2023-04-10T10:03:21.157Z,13.70
2023-04-10T10:04:23.773Z,13.80
2023-04-10T10:05:30.445Z,14.00
2023-04-10T10:06:32.848Z,14.10
2023-04-10T10:07:34.939Z,14.10
2023-04-10T10:08:36.916Z,14.20
2023-04-10T10:09:38.669Z,14.30
2023-04-10T10:10:58.646Z,14.30
2023-04-10T10:12:01.090Z,14.30
2023-04-10T10:13:04.012Z,14.50
2023-04-10T10:14:17.205Z,14.60
2023-04-10T10:15:21.690Z,14.70
2023-04-10T10:16:32.384Z,14.70
2023-04-10T10:17:39.579Z,14.80
2023-04-10T10:18:56.650Z,14.80
2023-04-10T10:20:06.579Z,14.90
2023-04-10T10:21:10.229Z,15.00
2023-04-10T10:22:13.084Z,15.20
2023-04-10T10:23:15.985Z,15.30
2023-04-10T10:24:20.580Z,15.20
2023-04-10T10:25:23.641Z,15.20
2023-04-10T10:26:25.919Z,15.10
2023-04-10T10:27:31.103Z,14.90
2023-04-10T10:28:34.516Z,15.00
2023-04-10T10:29:39.894Z,15.00
2023-04-10T10:30:42.490Z,15.00
2023-04-10T10:31:46.124Z,14.90
2023-04-10T10:32:49.750Z,14.90
2023-04-10T10:33:54.504Z,14.90
2023-04-10T10:34:57.624Z,15.00
2023-04-10T10:36:00.744Z,15.00
2023-04-10T10:37:04.016Z,15.20
2023-04-10T10:38:06.433Z,15.30
2023-04-10T10:39:35.746Z,15.30
2023-04-10T10:40:39.993Z,15.40
2023-04-10T10:41:49.600Z,15.50
2023-04-10T10:43:00.743Z,15.50
2023-04-10T10:44:10.862Z,15.50
2023-04-10T10:45:22.871Z,15.40
2023-04-10T10:46:27.301Z,15.50
2023-04-10T10:47:30.964Z,15.60
2023-04-10T10:48:32.376Z,15.60
2023-04-10T10:50:00.363Z,15.70
2023-04-10T10:51:03.544Z,15.70
2023-04-10T10:52:05.100Z,15.70
2023-04-10T10:53:06.684Z,15.60
2023-04-10T10:54:27.907Z,15.70
2023-04-10T10:55:39.785Z,15.90
2023-04-10T10:56:41.139Z,16.00
2023-04-10T10:57:47.749Z,15.90
2023-04-10T10:58:55.930Z,15.70
2023-04-10T10:59:58.050Z,15.80
2023-04-10T11:00:59.527Z,15.90
2023-04-10T11:02:20.044Z,15.80
2023-04-10T11:03:23.410Z,15.90
2023-04-10T11:04:47.567Z,16.00
2023-04-10T11:05:55.930Z,16.10
2023-04-10T11:06:57.350Z,16.30
2023-04-10T11:07:58.704Z,16.20
2023-04-10T11:09:00.325Z,16.20
2023-04-10T11:10:01.838Z,16.20
2023-04-10T11:11:07.783Z,16.20
2023-04-10T11:12:09.466Z,16.10
2023-04-10T11:13:18.440Z,16.10
2023-04-10T11:14:21.334Z,16.20
2023-04-10T11:15:23.736Z,16.10
2023-04-10T11:16:43.977Z,16.10
2023-04-10T11:17:54.309Z,16.10
2023-04-10T11:19:14.826Z,16.00
2023-04-10T11:20:20.785Z,16.00
2023-04-10T11:21:23.635Z,15.90
2023-04-10T11:22:25.309Z,15.90
2023-04-10T11:23:26.737Z,15.90
2023-04-10T11:24:29.137Z,15.90
2023-04-10T11:25:53.859Z,15.90
2023-04-10T11:26:56.221Z,16.00
2023-04-10T11:27:57.768Z,15.90
2023-04-10T11:28:59.806Z,16.00
2023-04-10T11:30:01.235Z,16.00
2023-04-10T11:31:22.598Z,16.00
2023-04-10T11:32:24.722Z,16.10
2023-04-10T11:33:26.187Z,16.20
2023-04-10T11:34:28.554Z,16.10
2023-04-10T11:35:31.630Z,16.20
2023-04-10T11:36:35.080Z,16.20
2023-04-10T11:37:36.882Z,15.90
2023-04-10T11:38:38.340Z,16.00
2023-04-10T11:39:39.745Z,16.10
2023-04-10T11:40:54.854Z,16.20
2023-04-10T11:41:57.708Z,16.20
2023-04-10T11:43:14.949Z,16.30
2023-04-10T11:44:28.488Z,16.40
2023-04-10T11:45:30.015Z,16.50
2023-04-10T11:46:32.013Z,16.60
2023-04-10T11:47:34.396Z,16.60
2023-04-10T11:48:37.628Z,16.60
2023-04-10T11:49:39.257Z,16.70
2023-04-10T11:50:40.817Z,16.80
2023-04-10T11:51:46.437Z,17.00
2023-04-10T11:52:51.272Z,17.10
2023-04-10T11:54:09.972Z,17.20
2023-04-10T11:55:12.088Z,17.20
2023-04-10T11:56:17.739Z,17.20
2023-04-10T11:57:19.151Z,17.30
2023-04-10T11:58:28.828Z,17.30
2023-04-10T11:59:32.038Z,17.40
2023-04-10T12:00:33.675Z,17.40
2023-04-10T12:01:35.563Z,17.50
2023-04-10T12:02:51.414Z,17.70
2023-04-10T12:03:53.192Z,17.80
2023-04-10T12:04:59.264Z,17.90
2023-04-10T12:06:00.890Z,17.90
2023-04-10T12:07:03.527Z,18.00
2023-04-10T12:08:06.251Z,18.10
2023-04-10T12:09:14.645Z,18.20
2023-04-10T12:10:16.691Z,18.00
2023-04-10T12:11:23.066Z,18.10
2023-04-10T12:12:37.973Z,18.10
2023-04-10T12:13:40.143Z,18.00
2023-04-10T12:14:42.988Z,18.00
2023-04-10T12:15:44.358Z,18.10
2023-04-10T12:16:46.919Z,18.10
2023-04-10T12:17:49.000Z,18.10
2023-04-10T12:18:51.178Z,18.10
2023-04-10T12:19:53.141Z,18.20
2023-04-10T12:20:57.083Z,18.30
2023-04-10T12:21:59.807Z,18.40
2023-04-10T12:23:03.134Z,18.50
2023-04-10T12:24:06.009Z,18.50
2023-04-10T12:25:12.252Z,18.60
2023-04-10T12:26:18.696Z,18.60
2023-04-10T12:27:22.748Z,18.40
2023-04-10T12:28:24.212Z,18.60
2023-04-10T12:29:27.822Z,18.80
2023-04-10T12:30:29.373Z,19.00
2023-04-10T12:31:36.539Z,19.10
2023-04-10T12:32:38.092Z,19.20
2023-04-10T12:33:40.104Z,19.30
2023-04-10T12:34:41.836Z,19.40
2023-04-10T12:35:43.409Z,19.50
2023-04-10T12:36:53.945Z,19.50
2023-04-10T12:37:55.413Z,19.60
2023-04-10T12:38:58.921Z,19.80
2023-04-10T12:40:07.554Z,19.80
2023-04-10T12:41:11.184Z,19.90
2023-04-10T12:42:16.970Z,19.80
2023-04-10T12:43:35.424Z,20.00
2023-04-10T12:44:56.861Z,20.10
2023-04-10T12:45:58.592Z,20.20
2023-04-10T12:47:01.810Z,20.30
2023-04-10T12:48:03.664Z,20.40
2023-04-10T12:49:13.549Z,20.50
2023-04-10T12:50:16.829Z,20.50
2023-04-10T12:51:18.315Z,20.40
2023-04-10T12:52:23.391Z,20.40
2023-04-10T12:53:26.181Z,20.30
2023-04-10T12:54:32.190Z,20.20
2023-04-10T12:55:33.757Z,20.20
2023-04-10T12:56:47.566Z,20.20
2023-04-10T12:57:49.168Z,20.10
2023-04-10T12:59:07.194Z,20.20
2023-04-10T13:00:13.992Z,20.20
2023-04-10T13:01:15.389Z,20.30
2023-04-10T13:02:18.788Z,20.50
2023-04-10T13:03:21.005Z,20.20
2023-04-10T13:04:23.853Z,20.00
2023-04-10T13:05:26.351Z,20.10
2023-04-10T13:06:28.199Z,20.30
2023-04-10T13:07:29.915Z,20.30
2023-04-10T13:08:32.569Z,20.30
2023-04-10T13:09:34.340Z,20.50
2023-04-10T13:10:38.261Z,20.60
2023-04-10T13:11:40.624Z,20.70
2023-04-10T13:12:43.585Z,20.90
2023-04-10T13:13:44.976Z,21.00
2023-04-10T13:14:46.718Z,21.10
2023-04-10T13:15:49.130Z,21.20
2023-04-10T13:16:50.522Z,21.30
2023-04-10T13:17:51.943Z,21.10
2023-04-10T13:18:53.907Z,21.20
2023-04-10T13:19:55.889Z,21.30
2023-04-10T13:20:57.751Z,21.30
2023-04-10T13:22:01.236Z,21.30
2023-04-10T13:23:03.794Z,21.30
2023-04-10T13:24:06.018Z,21.30
2023-04-10T13:25:07.716Z,21.30
2023-04-10T13:26:09.060Z,21.40
2023-04-10T13:27:10.777Z,21.40
2023-04-10T13:28:12.468Z,21.40
2023-04-10T13:29:14.428Z,21.50
2023-04-10T13:30:16.055Z,21.50
2023-04-10T13:31:17.570Z,21.60
2023-04-10T13:32:19.004Z,21.70
2023-04-10T13:33:20.772Z,21.80
2023-04-10T13:34:22.203Z,21.90
2023-04-10T13:35:23.649Z,21.80
2023-04-10T13:36:27.116Z,21.60
2023-04-10T13:37:28.565Z,21.60
2023-04-10T13:38:30.517Z,21.60
2023-04-10T13:39:32.095Z,21.30
2023-04-10T13:40:33.566Z,21.40
2023-04-10T13:41:35.307Z,21.20
2023-04-10T13:42:39.347Z,21.30
2023-04-10T13:43:42.047Z,21.40
2023-04-10T13:44:43.532Z,21.40
2023-04-10T13:45:45.056Z,21.00
2023-04-10T13:46:46.598Z,21.00
2023-04-10T13:47:48.671Z,21.00
2023-04-10T13:48:50.246Z,20.90
2023-04-10T13:49:51.623Z,20.80
2023-04-10T13:50:53.369Z,20.90
2023-04-10T13:51:54.738Z,20.90
2023-04-10T13:52:56.117Z,21.10
2023-04-10T13:53:58.008Z,21.10
2023-04-10T13:54:59.446Z,21.20
2023-04-10T13:56:01.329Z,21.30
2023-04-10T13:57:03.075Z,21.40
2023-04-10T13:58:04.970Z,21.40
2023-04-10T13:59:06.482Z,21.50
2023-04-10T14:00:08.507Z,21.50
2023-04-10T14:01:17.339Z,21.50
2023-04-10T14:02:18.857Z,21.60
2023-04-10T14:03:20.619Z,21.60
2023-04-10T14:04:22.174Z,21.60
2023-04-10T14:05:23.780Z,21.50
2023-04-10T14:06:25.318Z,21.40
2023-04-10T14:07:26.993Z,21.40
2023-04-10T14:08:28.677Z,21.40
2023-04-10T14:09:30.215Z,21.30
2023-04-10T14:10:31.749Z,21.30
2023-04-10T14:11:33.536Z,21.20
2023-04-10T14:12:37.094Z,20.90
2023-04-10T14:13:39.226Z,20.30
2023-04-10T14:14:40.765Z,20.10
2023-04-10T14:15:42.566Z,20.10
2023-04-10T14:16:44.091Z,20.20
2023-04-10T14:17:45.913Z,20.30
2023-04-10T14:18:47.539Z,20.30
2023-04-10T14:19:51.512Z,20.40
2023-04-10T14:20:52.908Z,20.40
2023-04-10T14:21:54.291Z,20.50
2023-04-10T14:22:55.933Z,20.60
2023-04-10T14:23:57.394Z,20.60
2023-04-10T14:25:09.301Z,20.70